To NAV CANADA Home Page Login to a new session Search on AWWS site Disclaimer Vers la page française équivalente Tips FAQ What's new on the site To the Forecasts and Observations / NOTAM section To "File a Flight Plan" website Publications and other links Update of the User's profile FIC Telephone Numbers My Weather Data Folder Route Weather Data Regional Weather Data Local Weather Data To the Forecasts and Observations / NOTAM section
Request Generated 10/05/2022 at 17:25:50 UTC . Weather information available at that time is displayed.


Save this request - Inactive

METAR/TAF

If you find any discrepancies between the coded METAR/TAF and the plain language METAR/TAF please use the coded METAR/TAF. LWIS bulletins are not decoded in plain language.

LONDON/ON    

METAR CYXU 051700Z VRB02KT 15SM FEW240 21/08 A3008 RMK CI2 SLP191 DENSITY ALT 1 0FT=
METAR
LOCATION
CYXU - LONDON/ON
DATE - TIME
05 OCTOBER 2022 - 1700 UTC
WIND
VRB @ 2  KNOTS
VISIBILITY
15 STAT.  MILES
RUNWAY VISUAL RANGE
WEATHER
CLOUDINESS
FEW CLOUDS (1/8 - 2/8) 24000  FT
TEMP / DEWPOINT
21 C / 8 C
ALTIMETER
30.08 IN HG
RECENT WEATHER
WIND SHEAR

METAR CYXU 051600Z VRB03KT 15SM FEW220 19/05 A3009 RMK CI1 SLP194 DENSITY ALT 1 0FT=
METAR
LOCATION
CYXU - LONDON/ON
DATE - TIME
05 OCTOBER 2022 - 1600 UTC
WIND
VRB @ 3  KNOTS
VISIBILITY
15 STAT.  MILES
RUNWAY VISUAL RANGE
WEATHER
CLOUDINESS
FEW CLOUDS (1/8 - 2/8) 22000  FT
TEMP / DEWPOINT
19 C / 5 C
ALTIMETER
30.09 IN HG
RECENT WEATHER
WIND SHEAR

METAR CYXU 051500Z 32002KT 15SM FEW240 18/01 A3010 RMK CI1 SLP197 DENSITY ALT 1 0FT=
METAR
LOCATION
CYXU - LONDON/ON
DATE - TIME
05 OCTOBER 2022 - 1500 UTC
WIND
320 TRUE @ 2  KNOTS
VISIBILITY
15 STAT.  MILES
RUNWAY VISUAL RANGE
WEATHER
CLOUDINESS
FEW CLOUDS (1/8 - 2/8) 24000  FT
TEMP / DEWPOINT
18 C / 1 C
ALTIMETER
30.10 IN HG
RECENT WEATHER
WIND SHEAR

TAF CYXU 051140Z 0512/0612 VRB03KT P6SM SKC PROB30 0512/0513 2 1/2SM BR FM051500 VRB03KT P6SM FEW100 BECMG 0517/0519 27007KT FM060400 VRB03KT P6SM BKN120 BECMG 0605/0607 24006KT RMK NXT FCST BY 051800Z=
TAF
LOCATION

CYXU - LONDON/ON
VALIDITY [UTC]
05 OCT - 1140 to
06 OCT - 1200
 
TIMES
[UTC]
WIND
[DEGREES TRUE]
VISIBILITY
[STAT. MILES]
WEATHER
CLOUDINESS
[FEET AGL]
 
05 OCT - 1200 to
05 OCT - 1500
VARIABLE @ 3 KNOTS
6+
NIL
CLEAR SKY
30% PROBABILITY
05 OCT - 1200 to
05 OCT - 1300
 
1/2
MIST
 
 
05 OCT - 1500 to
06 OCT - 0400
VARIABLE @ 3 KNOTS
6+
NIL
10000 FEW
BECOMING
05 OCT - 1700 to
05 OCT - 1900
270 @ 7 KNOTS
 
 
 
 
06 OCT - 0400 to
06 OCT - 1200
VARIABLE @ 3 KNOTS
6+
NIL
12000 BROKEN
BECOMING
06 OCT - 0500 to
06 OCT - 0700
240 @ 6 KNOTS
 
 
 
REMARKS




Your time UTC time
Weather data provided by Environment Canada and NAV CANADA